createdAt,value
2023-07-27T00:00:26.518Z,96268.91
2023-07-27T00:02:53.036Z,96277.50
2023-07-27T00:05:19.500Z,96273.88
2023-07-27T00:07:46.162Z,96208.19
2023-07-27T00:10:12.613Z,96110.63
2023-07-27T00:12:39.132Z,96062.91
2023-07-27T00:15:06.030Z,96066.00
2023-07-27T00:17:32.575Z,96003.31
2023-07-27T00:19:59.057Z,95921.13
2023-07-27T00:22:25.529Z,95900.06
2023-07-27T00:24:52.068Z,95874.44
2023-07-27T00:27:18.587Z,95889.25
2023-07-27T00:29:45.228Z,95846.84
2023-07-27T00:32:11.719Z,95818.34
2023-07-27T00:34:38.133Z,95812.13
2023-07-27T00:37:04.684Z,95712.13
2023-07-27T00:39:31.091Z,95672.03
2023-07-27T00:41:57.643Z,95644.88
2023-07-27T00:44:24.297Z,95609.84
2023-07-27T00:46:50.845Z,95616.50
2023-07-27T00:49:17.265Z,95614.22
2023-07-27T00:51:44.226Z,95627.56
2023-07-27T00:54:11.059Z,95673.66
2023-07-27T00:56:38.440Z,95663.47
2023-07-27T00:59:05.210Z,95620.94
2023-07-27T01:04:06.859Z,95598.34
2023-07-27T01:06:33.527Z,95603.44
2023-07-27T01:09:00.185Z,95631.38
2023-07-27T01:11:38.042Z,95604.81
2023-07-27T01:14:15.705Z,95603.06
2023-07-27T01:16:52.813Z,95700.50
2023-07-27T01:19:41.262Z,95872.66
2023-07-27T01:22:40.310Z,95972.28
2023-07-27T01:25:15.058Z,95848.38
2023-07-27T01:27:47.383Z,95891.66
2023-07-27T01:30:39.133Z,95802.72
2023-07-27T01:33:06.853Z,95784.19
2023-07-27T01:35:37.235Z,95711.13
2023-07-27T01:38:03.678Z,95645.63
2023-07-27T01:40:30.108Z,95599.63
2023-07-27T01:42:56.581Z,95573.97
2023-07-27T01:45:23.232Z,95576.22
2023-07-27T01:47:49.996Z,95549.19
2023-07-27T01:50:16.544Z,95495.31
2023-07-27T01:52:43.928Z,95355.66
2023-07-27T01:55:10.388Z,95173.16
2023-07-27T01:57:36.818Z,95089.78
2023-07-27T02:00:04.115Z,95084.97
2023-07-27T02:02:30.947Z,95063.91
2023-07-27T02:04:58.792Z,95058.03
2023-07-27T02:07:25.360Z,95158.63
2023-07-27T02:09:51.820Z,95293.06
2023-07-27T02:12:26.045Z,95419.47
2023-07-27T02:15:08.089Z,95453.53
2023-07-27T02:17:53.324Z,95521.19
2023-07-27T02:20:19.948Z,95517.19
2023-07-27T02:22:46.421Z,95529.59
2023-07-27T02:25:12.821Z,95525.41
2023-07-27T02:27:39.263Z,95638.69
2023-07-27T02:30:06.337Z,95644.94
2023-07-27T02:32:33.576Z,95744.81
2023-07-27T02:35:00.073Z,95782.78
2023-07-27T02:37:26.497Z,95803.47
2023-07-27T02:39:52.892Z,95822.19
2023-07-27T02:42:19.556Z,95849.00
2023-07-27T02:44:45.952Z,95866.28
2023-07-27T02:47:12.413Z,95663.44
2023-07-27T02:49:39.021Z,95589.44
2023-07-27T02:52:05.561Z,95804.06
2023-07-27T02:54:32.031Z,95762.72
2023-07-27T02:56:58.473Z,95711.03
2023-07-27T02:59:24.892Z,95673.56
2023-07-27T03:01:51.349Z,95549.59
2023-07-27T03:04:18.098Z,95417.91
2023-07-27T03:06:44.655Z,95351.75
2023-07-27T03:09:11.105Z,95488.38
2023-07-27T03:11:38.831Z,95550.19
2023-07-27T03:14:05.329Z,95527.69
2023-07-27T03:16:32.360Z,95400.44
2023-07-27T03:18:59.379Z,95211.38
2023-07-27T03:21:25.816Z,95151.81
2023-07-27T03:23:52.228Z,95269.53
2023-07-27T03:26:18.913Z,95204.91
2023-07-27T03:28:46.066Z,95105.84
2023-07-27T03:31:24.144Z,95033.72
2023-07-27T03:33:50.721Z,94962.84
2023-07-27T03:36:18.196Z,94836.91
2023-07-27T03:38:45.163Z,94741.72
2023-07-27T03:41:12.505Z,94689.09
2023-07-27T03:43:38.983Z,94734.88
2023-07-27T03:46:05.734Z,94680.59
2023-07-27T03:48:32.354Z,94667.63
2023-07-27T03:51:02.317Z,94649.78
2023-07-27T03:53:29.138Z,94625.09
2023-07-27T03:55:55.835Z,94580.53
2023-07-27T03:58:22.652Z,94579.56
2023-07-27T04:00:49.368Z,94575.72
2023-07-27T04:03:15.859Z,94567.22
2023-07-27T04:05:42.313Z,94584.09
2023-07-27T04:08:08.948Z,94530.81
2023-07-27T04:10:35.449Z,94481.88
2023-07-27T04:13:01.919Z,94347.56
2023-07-27T04:15:28.522Z,94192.59
2023-07-27T04:17:54.989Z,94115.19
2023-07-27T04:20:21.521Z,94098.09
2023-07-27T04:22:48.141Z,94236.50
2023-07-27T04:25:14.591Z,94314.44
2023-07-27T04:27:41.378Z,94321.31
2023-07-27T04:30:08.620Z,94336.22
2023-07-27T04:32:35.066Z,94329.94
2023-07-27T04:35:01.656Z,94359.50
2023-07-27T04:37:28.496Z,94293.84
2023-07-27T04:39:54.904Z,94210.13
2023-07-27T04:42:21.309Z,94191.78
2023-07-27T04:44:47.743Z,94184.91
2023-07-27T04:47:14.306Z,94234.22
2023-07-27T04:49:40.722Z,94200.63
2023-07-27T04:52:07.721Z,94143.84
2023-07-27T04:54:34.285Z,94185.06
2023-07-27T04:57:00.801Z,94152.91
2023-07-27T04:59:27.852Z,94110.00
2023-07-27T05:01:54.274Z,94167.38
2023-07-27T05:04:20.968Z,94189.50
2023-07-27T05:06:48.154Z,94165.25
2023-07-27T05:09:15.503Z,94200.09
2023-07-27T05:11:42.592Z,94197.72
2023-07-27T05:14:09.162Z,94234.53
2023-07-27T05:16:36.136Z,94292.19
2023-07-27T05:19:03.036Z,94411.28
2023-07-27T05:21:29.465Z,94603.44
2023-07-27T05:23:55.919Z,94757.72
2023-07-27T05:26:22.581Z,94735.75
2023-07-27T05:28:48.974Z,94782.19
2023-07-27T05:31:15.505Z,94903.28
2023-07-27T05:33:42.140Z,94895.13
2023-07-27T05:36:08.559Z,94997.22
2023-07-27T05:38:34.956Z,94938.31
2023-07-27T05:41:01.855Z,95055.63
2023-07-27T05:43:28.387Z,95167.66
2023-07-27T05:45:54.823Z,95214.75
2023-07-27T05:48:21.573Z,95343.91
2023-07-27T05:50:48.148Z,95378.00
2023-07-27T05:53:14.621Z,95301.63
2023-07-27T05:55:41.241Z,95339.81
2023-07-27T05:58:23.134Z,95234.41
2023-07-27T06:00:51.347Z,95407.25
2023-07-27T06:03:20.048Z,95516.16
2023-07-27T06:05:46.562Z,95516.97
2023-07-27T06:08:13.215Z,95497.50
2023-07-27T06:10:39.997Z,95461.31
2023-07-27T06:13:06.400Z,95574.47
2023-07-27T06:15:32.843Z,95555.19
2023-07-27T06:17:59.380Z,95599.53
2023-07-27T06:20:25.845Z,95594.66
2023-07-27T06:22:52.456Z,95757.19
2023-07-27T06:25:18.887Z,95762.91
2023-07-27T06:27:45.516Z,95716.16
2023-07-27T06:30:14.009Z,95844.59
2023-07-27T06:32:40.634Z,95982.00
2023-07-27T06:35:07.597Z,95665.00
2023-07-27T06:37:34.174Z,95824.34
2023-07-27T06:40:00.847Z,95917.44
2023-07-27T06:42:27.435Z,95948.34
2023-07-27T06:44:54.055Z,95908.75
2023-07-27T06:47:20.561Z,95973.22
2023-07-27T06:49:47.082Z,95934.00
2023-07-27T06:52:14.017Z,96043.28
2023-07-27T06:54:40.890Z,96188.16
2023-07-27T06:57:11.010Z,96158.50
2023-07-27T06:59:38.184Z,96175.28
2023-07-27T07:02:05.056Z,96359.97
2023-07-27T07:04:32.411Z,96541.09
2023-07-27T07:06:59.296Z,96768.22
2023-07-27T07:09:25.873Z,96758.94
2023-07-27T07:11:52.395Z,96799.94
2023-07-27T07:14:19.004Z,96960.31
2023-07-27T07:16:45.506Z,97096.72
2023-07-27T07:19:11.952Z,97094.56
2023-07-27T07:21:38.600Z,97069.41
2023-07-27T07:24:05.429Z,96969.03
2023-07-27T07:26:32.222Z,96697.22
2023-07-27T07:28:59.056Z,97088.09
2023-07-27T07:31:25.618Z,97162.69
2023-07-27T07:33:52.120Z,97239.13
2023-07-27T07:36:20.214Z,97152.94
2023-07-27T07:38:46.626Z,97244.75
2023-07-27T07:41:13.105Z,97389.84
2023-07-27T07:43:40.756Z,97389.66
2023-07-27T07:46:11.624Z,97425.41
2023-07-27T07:48:38.057Z,97475.03
2023-07-27T07:51:09.791Z,97391.34
2023-07-27T07:53:36.210Z,97473.06
2023-07-27T07:56:02.699Z,97466.94
2023-07-27T07:58:29.283Z,97360.88
2023-07-27T08:00:55.686Z,97084.94
2023-07-27T08:03:22.420Z,96887.28
2023-07-27T08:05:48.903Z,96769.09
2023-07-27T08:08:15.336Z,96754.25
2023-07-27T08:10:41.742Z,96544.97
2023-07-27T08:13:08.190Z,96157.16
2023-07-27T08:15:34.642Z,95965.47
2023-07-27T08:18:01.133Z,95802.69
2023-07-27T08:20:27.904Z,95584.66
2023-07-27T08:22:54.421Z,95394.72
2023-07-27T08:25:22.418Z,94872.59
2023-07-27T08:27:52.519Z,94566.94
2023-07-27T08:30:19.188Z,94601.50
2023-07-27T08:32:47.776Z,94593.88
2023-07-27T08:35:14.225Z,94479.59
2023-07-27T08:37:40.666Z,94428.03
2023-07-27T08:40:10.023Z,94071.63
2023-07-27T08:42:36.809Z,93730.97
2023-07-27T08:45:03.401Z,93588.88
2023-07-27T08:47:29.865Z,93315.25
2023-07-27T08:49:56.569Z,93070.09
2023-07-27T08:52:24.739Z,93480.09
2023-07-27T08:54:51.184Z,93376.31
2023-07-27T08:57:17.677Z,93358.63
2023-07-27T08:59:44.138Z,93249.28
2023-07-27T09:02:10.632Z,93142.75
2023-07-27T09:04:37.642Z,93413.13
2023-07-27T09:07:07.843Z,93449.09
2023-07-27T09:09:34.647Z,93542.63
2023-07-27T09:12:04.875Z,93549.00
2023-07-27T09:14:38.105Z,93456.50
2023-07-27T09:17:05.713Z,92988.41
2023-07-27T09:19:39.001Z,92870.22
2023-07-27T09:22:05.460Z,92853.78
2023-07-27T09:24:35.296Z,92514.78
2023-07-27T09:27:02.768Z,92690.81
2023-07-27T09:29:29.308Z,92746.38
2023-07-27T09:31:59.464Z,92248.69
2023-07-27T09:34:30.173Z,91361.84
2023-07-27T09:36:59.928Z,89951.50
2023-07-27T09:39:28.254Z,89521.03
2023-07-27T09:41:55.013Z,89119.09
2023-07-27T09:44:25.217Z,89044.41
2023-07-27T09:46:52.030Z,88813.38
2023-07-27T09:49:18.624Z,88737.91
2023-07-27T09:51:45.789Z,88736.41
2023-07-27T09:54:12.907Z,88699.44
2023-07-27T09:56:39.689Z,88489.53
2023-07-27T09:59:06.553Z,88485.75
2023-07-27T10:01:33.553Z,88598.25
2023-07-27T10:03:59.983Z,88866.25
2023-07-27T10:06:27.457Z,88969.72
2023-07-27T10:08:54.472Z,88552.97
2023-07-27T10:11:31.607Z,88364.56
2023-07-27T10:13:58.630Z,88704.38
2023-07-27T10:16:27.642Z,88749.31
2023-07-27T10:18:56.225Z,88701.72
2023-07-27T10:21:22.793Z,88702.50
2023-07-27T10:23:58.025Z,89359.06
2023-07-27T10:26:52.261Z,89484.06
2023-07-27T10:29:21.932Z,89487.16
2023-07-27T10:32:07.963Z,89700.00
2023-07-27T10:34:41.029Z,89702.22
2023-07-27T10:37:17.697Z,89812.09
2023-07-27T10:39:53.719Z,89743.28
2023-07-27T10:42:23.481Z,89432.50
2023-07-27T10:44:54.097Z,89207.19
2023-07-27T10:47:25.433Z,88961.19
2023-07-27T10:49:53.669Z,88616.31
2023-07-27T10:52:20.904Z,88248.94
2023-07-27T10:54:48.002Z,87596.41
2023-07-27T10:57:15.792Z,86837.13
2023-07-27T10:59:43.706Z,86203.16
2023-07-27T11:02:12.935Z,85850.31
2023-07-27T11:04:40.762Z,85630.88
2023-07-27T11:07:07.496Z,85480.69
2023-07-27T11:09:33.896Z,85291.00
2023-07-27T11:12:03.115Z,85260.28
2023-07-27T11:14:29.736Z,85145.19
2023-07-27T11:16:56.199Z,85281.50
2023-07-27T11:19:23.046Z,85228.97
2023-07-27T11:21:50.215Z,85203.34
2023-07-27T11:24:17.295Z,85224.78
2023-07-27T11:26:43.745Z,85179.88
2023-07-27T11:29:10.567Z,85127.16
2023-07-27T11:31:37.103Z,85026.91
2023-07-27T11:34:04.273Z,85014.63
2023-07-27T11:36:31.653Z,84983.91
2023-07-27T11:38:59.166Z,84954.97
2023-07-27T11:44:00.333Z,84978.97
2023-07-27T11:46:27.503Z,84930.56
2023-07-27T11:49:06.464Z,84795.44
2023-07-27T11:51:34.258Z,84538.72
2023-07-27T11:54:00.863Z,84366.84
2023-07-27T11:56:27.303Z,84148.25
2023-07-27T11:58:53.742Z,83989.56
2023-07-27T12:01:20.533Z,83890.78
2023-07-27T12:03:47.319Z,83856.75
2023-07-27T12:06:14.218Z,83980.50
2023-07-27T12:11:40.865Z,84082.31
2023-07-27T12:14:00.209Z,84064.09
2023-07-27T12:16:59.719Z,84119.47
2023-07-27T12:19:22.340Z,84082.28
2023-07-27T12:21:51.294Z,84091.41
2023-07-27T12:34:21.375Z,84083.03
2023-07-27T12:39:19.868Z,84093.13
2023-07-27T12:42:23.494Z,84170.78
2023-07-27T12:44:32.937Z,84207.72
2023-07-27T12:46:59.537Z,84172.72
2023-07-27T12:49:26.055Z,84177.00
2023-07-27T12:51:52.631Z,84102.22
2023-07-27T12:54:19.464Z,83951.28
2023-07-27T12:56:45.981Z,83922.09
2023-07-27T12:59:12.436Z,83749.03
2023-07-27T13:01:38.865Z,83533.34
2023-07-27T13:04:05.337Z,83251.09
2023-07-27T13:06:34.155Z,83104.34
2023-07-27T13:09:01.138Z,82957.25
2023-07-27T13:11:27.751Z,82821.88
2023-07-27T13:13:54.266Z,82821.19
2023-07-27T13:16:20.767Z,82882.34
2023-07-27T13:18:47.453Z,82955.06
2023-07-27T13:21:13.942Z,83039.75
2023-07-27T13:23:40.394Z,83021.97
2023-07-27T13:26:07.702Z,83065.56
2023-07-27T13:28:34.258Z,83135.16
2023-07-27T13:31:00.814Z,83234.03
2023-07-27T13:33:27.588Z,83232.91
2023-07-27T13:35:54.233Z,83309.97
2023-07-27T13:38:20.900Z,83385.28
2023-07-27T13:40:47.433Z,83396.19
2023-07-27T13:43:13.880Z,83419.19
2023-07-27T13:45:40.605Z,83492.59
2023-07-27T13:48:09.692Z,83570.34
2023-07-27T13:50:36.615Z,83646.34
2023-07-27T13:53:03.118Z,83696.69
2023-07-27T13:55:29.582Z,83768.63
2023-07-27T13:57:56.023Z,83792.81
2023-07-27T14:00:22.913Z,83801.13
2023-07-27T14:02:49.553Z,83753.88
2023-07-27T14:05:17.039Z,83706.34
2023-07-27T14:07:43.514Z,83594.22
2023-07-27T14:10:10.331Z,83563.69
2023-07-27T14:12:36.762Z,83446.84
2023-07-27T14:15:03.391Z,83407.81
2023-07-27T14:17:30.069Z,83301.47
2023-07-27T14:19:57.928Z,83270.81
2023-07-27T14:22:24.569Z,83381.56
2023-07-27T14:24:52.401Z,83449.72
2023-07-27T14:27:18.852Z,83475.28
2023-07-27T14:29:45.349Z,83519.84
2023-07-27T14:32:11.962Z,83532.72
2023-07-27T14:34:38.445Z,83541.28
2023-07-27T14:37:05.167Z,83559.47
2023-07-27T14:42:01.389Z,83585.13
2023-07-27T14:44:27.814Z,83637.44
2023-07-27T14:46:54.436Z,83651.84
2023-07-27T14:49:24.386Z,83710.44
2023-07-27T14:51:51.259Z,83746.13
2023-07-27T14:54:17.807Z,83777.53
2023-07-27T14:56:46.747Z,83761.19
2023-07-27T14:59:13.703Z,83825.00
2023-07-27T15:01:51.662Z,83812.53
2023-07-27T15:06:47.833Z,83796.88
2023-07-27T15:09:14.581Z,83768.06
2023-07-27T15:11:41.071Z,83768.34
2023-07-27T15:14:07.609Z,83755.59
2023-07-27T15:16:34.389Z,83744.56
2023-07-27T15:19:01.036Z,83704.91
2023-07-27T15:21:27.522Z,83656.94
2023-07-27T15:23:54.006Z,83464.84
2023-07-27T15:26:20.455Z,83288.53
2023-07-27T15:28:46.868Z,83184.41
2023-07-27T15:31:13.463Z,83094.13
2023-07-27T15:33:39.917Z,83093.94
2023-07-27T15:36:06.332Z,83027.97
2023-07-27T15:38:32.806Z,82929.91
2023-07-27T15:41:01.369Z,82860.97
2023-07-27T15:43:28.093Z,83055.28
2023-07-27T15:45:54.551Z,82971.63
2023-07-27T15:48:21.656Z,82930.50
2023-07-27T15:50:48.261Z,82906.22
2023-07-27T15:53:14.748Z,82925.53
2023-07-27T15:55:41.955Z,82987.47
2023-07-27T15:58:09.444Z,83058.53
2023-07-27T16:00:36.567Z,83122.59
2023-07-27T16:03:03.182Z,83150.09
2023-07-27T16:05:30.104Z,83140.13
2023-07-27T16:07:57.238Z,83171.41
2023-07-27T16:10:23.786Z,83208.16
2023-07-27T16:12:50.221Z,83201.88
2023-07-27T16:15:18.508Z,83211.72
2023-07-27T16:17:45.019Z,83195.56
2023-07-27T16:20:12.251Z,83141.34
2023-07-27T16:22:38.914Z,83132.00
2023-07-27T16:25:05.715Z,83133.94
2023-07-27T16:27:32.254Z,83134.25
2023-07-27T16:29:58.756Z,83099.09
2023-07-27T16:32:25.296Z,83143.91
2023-07-27T16:34:51.825Z,83167.66
2023-07-27T16:37:18.306Z,83234.75
2023-07-27T16:39:44.753Z,83280.44
2023-07-27T16:42:11.213Z,83286.09
2023-07-27T16:44:37.713Z,83297.81
2023-07-27T16:47:04.358Z,83314.38
2023-07-27T16:49:30.842Z,83368.13
2023-07-27T16:51:57.296Z,83409.44
2023-07-27T16:54:23.751Z,83424.78
2023-07-27T16:56:50.718Z,83497.84
2023-07-27T16:59:17.308Z,83524.22
2023-07-27T17:01:43.874Z,83569.59
2023-07-27T17:04:10.292Z,83614.25
2023-07-27T17:06:38.147Z,83651.19
2023-07-27T17:09:05.507Z,83673.00
2023-07-27T17:11:32.142Z,83682.34
2023-07-27T17:13:58.755Z,83718.38
2023-07-27T17:16:25.262Z,83759.16
2023-07-27T17:18:51.968Z,83779.13
2023-07-27T17:21:18.519Z,83795.22
2023-07-27T17:23:45.399Z,83787.53
2023-07-27T17:26:11.884Z,83652.47
2023-07-27T17:28:38.334Z,83520.53
2023-07-27T17:31:05.089Z,83479.50
2023-07-27T17:33:31.623Z,83583.88
2023-07-27T17:35:59.486Z,83597.56
2023-07-27T17:38:30.019Z,83623.44
2023-07-27T17:40:59.938Z,83672.38
2023-07-27T17:43:26.570Z,83711.94
2023-07-27T17:45:53.611Z,83755.59
2023-07-27T17:48:22.525Z,83796.88
2023-07-27T17:50:54.745Z,83853.22
2023-07-27T17:53:24.063Z,83924.50
2023-07-27T17:55:50.584Z,83974.88
2023-07-27T17:58:17.444Z,84012.25
2023-07-27T18:00:43.872Z,84086.16
2023-07-27T18:03:10.425Z,84165.34
2023-07-27T18:05:36.979Z,84203.75
2023-07-27T18:08:07.655Z,84214.31
2023-07-27T18:10:37.681Z,84224.88
2023-07-27T18:13:04.075Z,84243.56
2023-07-27T18:15:33.606Z,84200.59
2023-07-27T18:18:00.254Z,84186.69
2023-07-27T18:20:26.711Z,84187.91
2023-07-27T18:22:54.624Z,84199.91
2023-07-27T18:25:21.357Z,84232.78
2023-07-27T18:27:47.791Z,84252.69
2023-07-27T18:30:14.244Z,84262.53
2023-07-27T18:32:40.734Z,84280.50
2023-07-27T18:35:07.529Z,84226.50
2023-07-27T18:37:33.955Z,84289.63
2023-07-27T18:40:00.706Z,84366.19
2023-07-27T18:42:27.168Z,84411.06
2023-07-27T18:44:53.665Z,84461.44
2023-07-27T18:47:20.777Z,84514.25
2023-07-27T18:49:47.291Z,84536.81
2023-07-27T18:52:14.238Z,84590.81
2023-07-27T18:54:42.182Z,84658.00
2023-07-27T18:57:09.069Z,84731.44
2023-07-27T18:59:35.548Z,84840.16
2023-07-27T19:02:02.026Z,84898.25
2023-07-27T19:04:28.444Z,84931.34
2023-07-27T19:06:57.682Z,84970.97
2023-07-27T19:09:24.113Z,85006.75
2023-07-27T19:11:50.602Z,85073.94
2023-07-27T19:14:18.728Z,85127.94
2023-07-27T19:16:46.297Z,85181.00
2023-07-27T19:19:12.806Z,85238.34
2023-07-27T19:21:39.701Z,85260.22
2023-07-27T19:24:06.312Z,85323.59
2023-07-27T19:26:35.268Z,85391.50
2023-07-27T19:29:02.810Z,85476.75
2023-07-27T19:31:29.450Z,85558.13
2023-07-27T19:33:55.947Z,85635.44
2023-07-27T19:36:22.385Z,85714.94
2023-07-27T19:38:49.027Z,85829.97
2023-07-27T19:41:16.285Z,85890.72
2023-07-27T19:43:42.846Z,85932.50
2023-07-27T19:46:10.704Z,85987.25
2023-07-27T19:48:38.021Z,86042.72
2023-07-27T19:51:04.901Z,86097.34
2023-07-27T19:53:31.550Z,86176.88
2023-07-27T19:56:02.823Z,86199.19
2023-07-27T19:58:29.463Z,86245.84
2023-07-27T20:00:57.285Z,86261.69
2023-07-27T20:03:23.948Z,86279.03
2023-07-27T20:05:50.459Z,86298.22
2023-07-27T20:08:17.031Z,86301.63
2023-07-27T20:10:43.553Z,86302.34
2023-07-27T20:13:10.114Z,86287.25
2023-07-27T20:15:36.603Z,86290.63
2023-07-27T20:18:03.125Z,86273.28
2023-07-27T20:20:29.630Z,86256.28
2023-07-27T20:22:56.144Z,86228.69
2023-07-27T20:25:22.584Z,86197.41
2023-07-27T20:27:49.087Z,86163.06
2023-07-27T20:30:15.815Z,86081.94
2023-07-27T20:32:42.974Z,85994.00
2023-07-27T20:35:09.834Z,85871.31
2023-07-27T20:37:36.272Z,85702.28
2023-07-27T20:40:02.868Z,85619.22
2023-07-27T20:42:29.316Z,85652.09
2023-07-27T20:44:55.815Z,85702.28
2023-07-27T20:47:24.043Z,85752.00
2023-07-27T20:49:50.544Z,85799.56
2023-07-27T20:52:16.971Z,85807.78
2023-07-27T20:54:43.526Z,85812.34
2023-07-27T20:57:09.951Z,85802.03
2023-07-27T20:59:36.450Z,85793.09
2023-07-27T21:02:02.931Z,85794.09
2023-07-27T21:04:29.405Z,85778.00
2023-07-27T21:06:56.527Z,85778.25
2023-07-27T21:09:22.952Z,85768.44
2023-07-27T21:11:49.408Z,85768.44
2023-07-27T21:14:16.038Z,85761.69
2023-07-27T21:16:42.507Z,85760.94
2023-07-27T21:19:08.939Z,85782.09
2023-07-27T21:21:35.530Z,85802.50
2023-07-27T21:24:02.007Z,85814.97
2023-07-27T21:26:28.501Z,85859.31
2023-07-27T21:28:55.179Z,85885.72
2023-07-27T21:31:21.610Z,85930.63
2023-07-27T21:33:48.147Z,85952.50
2023-07-27T21:36:15.526Z,85963.06
2023-07-27T21:38:41.961Z,85987.56
2023-07-27T21:41:10.238Z,86012.22
2023-07-27T21:43:36.820Z,86029.09
2023-07-27T21:46:03.314Z,86046.56
2023-07-27T21:48:29.753Z,86080.44
2023-07-27T21:50:56.376Z,86112.88
2023-07-27T21:53:22.908Z,86126.84
2023-07-27T21:55:49.549Z,86145.34
2023-07-27T21:58:16.038Z,86177.75
2023-07-27T22:00:42.432Z,86189.81
2023-07-27T22:03:08.906Z,86183.03
2023-07-27T22:05:35.899Z,86177.75
2023-07-27T22:08:02.449Z,86184.66
2023-07-27T22:10:28.974Z,86173.34
2023-07-27T22:12:55.562Z,86165.72
2023-07-27T22:15:22.002Z,86144.59
2023-07-27T22:17:49.625Z,86131.38
2023-07-27T22:20:16.669Z,86117.75
2023-07-27T22:22:43.094Z,86079.13
2023-07-27T22:25:10.269Z,86039.50
2023-07-27T22:27:36.952Z,85999.59
2023-07-27T22:30:03.935Z,85955.84
2023-07-27T22:32:30.531Z,85940.75
2023-07-27T22:34:57.041Z,85897.75
2023-07-27T22:37:24.857Z,85865.31
2023-07-27T22:39:52.229Z,85851.09
2023-07-27T22:42:18.668Z,85839.06
2023-07-27T22:44:45.391Z,85834.78
2023-07-27T22:47:11.874Z,85844.34
2023-07-27T22:49:38.545Z,85817.78
2023-07-27T22:52:05.482Z,85801.19
2023-07-27T22:54:31.907Z,85779.78
2023-07-27T22:56:58.389Z,85769.22
2023-07-27T22:59:24.906Z,85757.47
2023-07-27T23:01:51.388Z,85717.84
2023-07-27T23:04:17.885Z,85695.53
2023-07-27T23:06:44.501Z,85681.13
2023-07-27T23:09:10.936Z,85674.41
2023-07-27T23:11:37.395Z,85663.09
2023-07-27T23:14:03.815Z,85639.81
2023-07-27T23:16:30.351Z,85630.69
2023-07-27T23:18:56.978Z,85611.91
2023-07-27T23:21:23.429Z,85589.44
2023-07-27T23:23:49.821Z,85570.66
2023-07-27T23:26:16.457Z,85558.19
2023-07-27T23:28:42.849Z,85550.00
2023-07-27T23:31:09.531Z,85573.47
2023-07-27T23:33:36.048Z,85572.75
2023-07-27T23:36:02.478Z,85586.41
2023-07-27T23:38:28.877Z,85620.44
2023-07-27T23:40:55.484Z,85652.16
2023-07-27T23:43:21.870Z,85702.75
2023-07-27T23:45:48.829Z,85754.09
2023-07-27T23:48:15.354Z,85803.25
2023-07-27T23:50:41.851Z,85848.16
2023-07-27T23:53:08.246Z,85906.69
2023-07-27T23:55:34.668Z,85914.94
2023-07-27T23:58:01.111Z,85942.03
